createdAt,value
2023-03-12T00:00:08.804Z,19.83
2023-03-12T00:02:36.107Z,20.33
2023-03-12T00:05:03.725Z,21.23
2023-03-12T00:07:30.707Z,20.50
2023-03-12T00:09:57.745Z,25.95
2023-03-12T00:12:24.751Z,20.13
2023-03-12T00:14:51.692Z,20.63
2023-03-12T00:17:18.641Z,22.65
2023-03-12T00:19:45.649Z,22.27
2023-03-12T00:22:12.595Z,23.45
2023-03-12T00:24:39.594Z,20.67
2023-03-12T00:27:07.570Z,21.65
2023-03-12T00:29:34.559Z,20.85
2023-03-12T00:32:01.786Z,22.48
2023-03-12T00:34:28.763Z,22.13
2023-03-12T00:36:55.761Z,19.55
2023-03-12T00:39:22.692Z,21.67
2023-03-12T00:41:49.690Z,19.90
2023-03-12T00:44:16.645Z,19.23
2023-03-12T00:46:43.738Z,20.27
2023-03-12T00:49:11.915Z,19.52
2023-03-12T00:51:39.067Z,18.98
2023-03-12T00:54:06.307Z,19.52
2023-03-12T00:56:33.342Z,20.15
2023-03-12T00:59:00.409Z,18.70
2023-03-12T01:01:27.868Z,19.67
2023-03-12T01:03:55.777Z,19.40
2023-03-12T01:06:22.788Z,22.55
2023-03-12T01:08:49.892Z,19.25
2023-03-12T01:11:19.938Z,18.65
2023-03-12T01:13:47.283Z,18.60
2023-03-12T01:16:14.391Z,19.15
2023-03-12T01:18:41.819Z,19.27
2023-03-12T01:21:08.930Z,21.55
2023-03-12T01:23:35.891Z,23.00
2023-03-12T01:26:09.064Z,19.20
2023-03-12T01:28:36.046Z,19.58
2023-03-12T01:31:11.232Z,24.60
2023-03-12T01:33:38.399Z,25.08
2023-03-12T01:36:06.567Z,24.40
2023-03-12T01:38:33.606Z,21.65
2023-03-12T01:41:00.543Z,23.48
2023-03-12T01:43:32.157Z,24.95
2023-03-12T01:46:05.422Z,25.58
2023-03-12T01:48:45.083Z,35.10
2023-03-12T01:51:15.098Z,24.67
2023-03-12T01:53:45.440Z,23.05
2023-03-12T01:56:13.624Z,20.65
2023-03-12T01:58:45.509Z,19.58
2023-03-12T02:01:14.944Z,19.15
2023-03-12T02:03:42.441Z,18.80
2023-03-12T02:06:13.883Z,19.65
2023-03-12T02:08:44.313Z,19.15
2023-03-12T02:11:11.348Z,19.77
2023-03-12T02:13:38.368Z,19.23
2023-03-12T02:16:05.900Z,20.55
2023-03-12T02:18:35.062Z,20.45
2023-03-12T02:21:15.946Z,19.83
2023-03-12T02:24:25.368Z,19.27
2023-03-12T02:26:52.430Z,19.38
2023-03-12T02:29:19.647Z,19.15
2023-03-12T02:31:54.482Z,19.38
2023-03-12T02:34:21.643Z,21.00
2023-03-12T02:36:49.002Z,18.90
2023-03-12T02:39:16.368Z,18.85
2023-03-12T02:41:46.473Z,19.60
2023-03-12T02:44:25.692Z,18.85
2023-03-12T02:46:58.149Z,19.17
2023-03-12T02:49:28.742Z,18.17
2023-03-12T02:51:55.857Z,18.10
2023-03-12T02:54:23.364Z,18.60
2023-03-12T02:56:51.098Z,18.85
2023-03-12T02:59:20.823Z,18.38
2023-03-12T03:01:48.081Z,17.98
2023-03-12T03:04:15.171Z,17.38
2023-03-12T03:06:43.857Z,17.90
2023-03-12T03:09:10.934Z,16.92
2023-03-12T03:11:37.867Z,17.08
2023-03-12T03:14:06.993Z,17.33
2023-03-12T03:16:34.472Z,17.60
2023-03-12T03:19:01.523Z,17.40
2023-03-12T03:21:28.624Z,17.42
2023-03-12T03:23:55.635Z,17.83
2023-03-12T03:26:24.123Z,17.65
2023-03-12T03:28:51.433Z,18.08
2023-03-12T03:31:18.720Z,18.50
2023-03-12T03:33:45.963Z,17.90
2023-03-12T03:36:16.961Z,17.80
2023-03-12T03:38:49.201Z,17.60
2023-03-12T03:41:20.239Z,17.73
2023-03-12T03:43:47.674Z,17.55
2023-03-12T03:46:15.612Z,16.80
2023-03-12T03:48:42.669Z,19.35
2023-03-12T03:51:11.974Z,17.35
2023-03-12T03:53:39.149Z,17.17
2023-03-12T03:56:11.473Z,18.08
2023-03-12T03:58:38.503Z,18.23
2023-03-12T04:01:06.308Z,17.38
2023-03-12T04:03:34.180Z,17.52
2023-03-12T04:06:03.415Z,17.58
2023-03-12T04:08:33.005Z,17.25
2023-03-12T04:10:59.948Z,17.80
2023-03-12T04:13:26.918Z,17.52
2023-03-12T04:15:54.259Z,17.10
2023-03-12T04:18:21.574Z,17.40
2023-03-12T04:20:48.725Z,17.40
2023-03-12T04:23:15.735Z,16.80
2023-03-12T04:25:43.085Z,17.15
2023-03-12T04:28:10.154Z,17.20
2023-03-12T04:30:38.417Z,17.40
2023-03-12T04:33:06.484Z,19.23
2023-03-12T04:35:33.820Z,17.90
2023-03-12T04:38:01.974Z,17.75
2023-03-12T04:40:29.102Z,18.00
2023-03-12T04:42:56.104Z,18.13
2023-03-12T04:45:23.086Z,17.35
2023-03-12T04:47:50.131Z,17.90
2023-03-12T04:50:17.357Z,17.63
2023-03-12T04:52:44.489Z,17.83
2023-03-12T04:55:11.430Z,20.08
2023-03-12T04:57:38.398Z,17.77
2023-03-12T05:00:11.020Z,17.58
2023-03-12T05:02:38.289Z,17.52
2023-03-12T05:05:05.866Z,18.55
2023-03-12T05:07:32.769Z,18.50
2023-03-12T05:09:59.888Z,18.33
2023-03-12T05:12:26.921Z,18.45
2023-03-12T05:14:53.846Z,17.73
2023-03-12T05:17:21.181Z,18.27
2023-03-12T05:19:48.206Z,18.02
2023-03-12T05:22:15.179Z,18.02
2023-03-12T05:24:42.149Z,20.23
2023-03-12T05:27:09.113Z,17.40
2023-03-12T05:29:36.145Z,17.83
2023-03-12T05:32:03.567Z,17.83
2023-03-12T05:34:31.865Z,17.98
2023-03-12T05:36:59.284Z,18.15
2023-03-12T05:39:27.029Z,18.15
2023-03-12T05:41:57.015Z,18.90
2023-03-12T05:44:25.310Z,18.85
2023-03-12T05:46:53.550Z,18.25
2023-03-12T05:49:21.504Z,17.90
2023-03-12T05:51:49.686Z,17.95
2023-03-12T05:54:17.648Z,18.00
2023-03-12T05:56:44.761Z,17.10
2023-03-12T05:59:11.808Z,21.92
2023-03-12T06:01:39.606Z,37.10
2023-03-12T06:04:06.749Z,18.13
2023-03-12T06:06:36.184Z,17.95
2023-03-12T06:09:05.163Z,17.50
2023-03-12T06:11:34.322Z,17.42
2023-03-12T06:14:01.355Z,19.23
2023-03-12T06:16:29.850Z,18.05
2023-03-12T06:19:02.090Z,17.67
2023-03-12T06:21:32.140Z,17.60
2023-03-12T06:23:59.744Z,17.02
2023-03-12T06:26:27.949Z,17.80
2023-03-12T06:28:55.334Z,17.15
2023-03-12T06:31:22.857Z,17.70
2023-03-12T06:33:50.018Z,19.17
2023-03-12T06:36:17.270Z,17.35
2023-03-12T06:38:44.318Z,18.13
2023-03-12T06:41:13.751Z,18.48
2023-03-12T06:43:41.874Z,17.20
2023-03-12T06:46:11.514Z,17.70
2023-03-12T06:48:41.404Z,17.83
2023-03-12T06:51:13.425Z,18.05
2023-03-12T06:53:42.512Z,17.50
2023-03-12T06:56:10.638Z,17.27
2023-03-12T06:58:37.915Z,18.95
2023-03-12T07:01:05.569Z,17.85
2023-03-12T07:03:32.638Z,17.52
2023-03-12T07:06:00.060Z,17.77
2023-03-12T07:08:31.323Z,20.17
2023-03-12T07:11:01.795Z,17.50
2023-03-12T07:13:31.204Z,18.73
2023-03-12T07:15:58.367Z,18.02
2023-03-12T07:18:25.393Z,18.65
2023-03-12T07:20:52.806Z,18.25
2023-03-12T07:23:20.583Z,19.48
2023-03-12T07:25:48.086Z,19.33
2023-03-12T07:28:16.624Z,18.67
2023-03-12T07:30:50.228Z,21.38
2023-03-12T07:33:20.518Z,17.58
2023-03-12T07:35:51.269Z,18.55
2023-03-12T07:38:19.236Z,20.35
2023-03-12T07:40:54.148Z,20.17
2023-03-12T07:43:22.088Z,31.95
2023-03-12T07:45:49.675Z,20.17
2023-03-12T07:48:19.609Z,20.00
2023-03-12T07:50:47.376Z,20.17
2023-03-12T07:53:14.483Z,20.15
2023-03-12T07:55:46.148Z,21.77
2023-03-12T07:58:14.154Z,21.30
2023-03-12T08:00:41.346Z,20.88
2023-03-12T08:03:08.978Z,22.27
2023-03-12T08:05:36.618Z,23.05
2023-03-12T08:08:03.882Z,22.40
2023-03-12T08:10:31.126Z,21.92
2023-03-12T08:12:58.233Z,24.65
2023-03-12T08:15:25.584Z,21.40
2023-03-12T08:17:52.693Z,21.40
2023-03-12T08:20:19.911Z,23.65
2023-03-12T08:22:46.932Z,22.20
2023-03-12T08:25:14.118Z,28.92
2023-03-12T08:27:41.404Z,30.38
2023-03-12T08:30:09.190Z,27.48
2023-03-12T08:33:21.773Z,24.25
2023-03-12T08:35:51.047Z,24.20
2023-03-12T08:38:18.739Z,23.77
2023-03-12T08:40:46.024Z,27.30
2023-03-12T08:43:13.329Z,24.77
2023-03-12T08:45:40.496Z,24.52
2023-03-12T08:48:07.990Z,24.85
2023-03-12T08:50:35.107Z,22.90
2023-03-12T08:53:02.219Z,24.38
2023-03-12T08:55:35.292Z,28.17
2023-03-12T08:58:07.080Z,28.08
2023-03-12T09:00:34.614Z,27.10
2023-03-12T09:03:04.094Z,28.63
2023-03-12T09:05:31.373Z,27.08
2023-03-12T09:07:58.925Z,27.27
2023-03-12T09:10:30.284Z,25.83
2023-03-12T09:12:57.951Z,29.08
2023-03-12T09:15:25.147Z,27.80
2023-03-12T09:17:52.262Z,30.65
2023-03-12T09:20:19.403Z,28.60
2023-03-12T09:22:46.441Z,30.45
2023-03-12T09:25:13.925Z,32.38
2023-03-12T09:27:43.820Z,32.50
2023-03-12T09:30:13.982Z,32.05
2023-03-12T09:32:41.567Z,31.52
2023-03-12T09:35:09.553Z,35.60
2023-03-12T09:37:36.879Z,35.90
2023-03-12T09:40:10.635Z,35.63
2023-03-12T09:42:49.763Z,36.20
2023-03-12T09:45:28.396Z,39.10
2023-03-12T09:48:04.368Z,32.75
2023-03-12T09:50:34.821Z,34.90
2023-03-12T09:53:12.085Z,31.65
2023-03-12T09:55:42.456Z,32.22
2023-03-12T09:58:40.331Z,32.83
2023-03-12T10:01:13.600Z,33.03
2023-03-12T10:04:08.019Z,36.90
2023-03-12T10:07:18.464Z,32.65
2023-03-12T10:10:11.326Z,32.38
2023-03-12T10:13:12.740Z,36.58
2023-03-12T10:16:09.476Z,32.42
2023-03-12T10:18:39.475Z,30.60
2023-03-12T10:22:03.895Z,29.52
2023-03-12T10:24:56.020Z,30.63
2023-03-12T10:27:28.038Z,31.98
2023-03-12T10:29:56.318Z,31.35
2023-03-12T10:32:51.974Z,30.35
2023-03-12T10:35:22.616Z,34.33
2023-03-12T10:37:57.184Z,31.58
2023-03-12T10:40:27.456Z,34.72
2023-03-12T10:42:54.712Z,31.75
2023-03-12T10:45:57.379Z,33.30
2023-03-12T10:48:26.420Z,35.03
2023-03-12T10:51:05.382Z,31.40
2023-03-12T10:53:48.573Z,33.17
2023-03-12T10:56:18.389Z,35.83
2023-03-12T10:58:51.717Z,35.30
2023-03-12T11:01:30.691Z,31.50
2023-03-12T11:04:15.750Z,34.10
2023-03-12T11:06:42.747Z,31.92
2023-03-12T11:09:17.303Z,32.50
2023-03-12T11:11:49.461Z,33.63
2023-03-12T11:14:22.812Z,31.52
2023-03-12T11:16:51.274Z,32.15
2023-03-12T11:19:35.320Z,31.83
2023-03-12T11:22:08.269Z,32.45
2023-03-12T11:24:35.846Z,30.92
2023-03-12T11:27:07.608Z,31.83
2023-03-12T11:29:47.191Z,34.30
2023-03-12T11:32:37.509Z,35.63
2023-03-12T11:35:10.859Z,35.88
2023-03-12T11:38:01.135Z,39.20
2023-03-12T11:41:10.344Z,38.35
2023-03-12T11:43:55.337Z,39.88
2023-03-12T11:46:32.719Z,40.95
2023-03-12T11:49:37.286Z,40.35
2023-03-12T11:52:20.601Z,44.30
2023-03-12T11:55:25.713Z,43.83
2023-03-12T11:58:31.682Z,45.55
2023-03-12T12:01:18.759Z,43.92
2023-03-12T12:04:13.310Z,41.58
2023-03-12T12:07:00.229Z,43.80
2023-03-12T12:09:27.168Z,45.47
2023-03-12T12:11:54.727Z,44.72
2023-03-12T12:14:58.156Z,43.97
2023-03-12T12:17:47.406Z,44.78
2023-03-12T12:20:34.191Z,44.33
2023-03-12T12:23:39.396Z,43.97
2023-03-12T12:26:12.431Z,42.70
2023-03-12T12:29:02.618Z,41.30
2023-03-12T12:31:37.419Z,42.53
2023-03-12T12:34:19.450Z,40.72
2023-03-12T12:36:56.114Z,41.10
2023-03-12T12:39:40.352Z,42.63
2023-03-12T12:42:13.447Z,41.55
2023-03-12T12:44:53.442Z,40.30
2023-03-12T12:47:30.232Z,43.92
2023-03-12T12:49:59.348Z,41.92
2023-03-12T12:52:27.692Z,44.80
2023-03-12T12:55:19.684Z,46.60
2023-03-12T12:57:54.937Z,43.33
2023-03-12T13:00:51.174Z,42.70
2023-03-12T13:03:21.931Z,40.10
2023-03-12T13:05:54.923Z,37.85
2023-03-12T13:08:34.295Z,37.05
2023-03-12T13:11:18.450Z,37.40
2023-03-12T13:13:51.320Z,35.28
2023-03-12T13:16:30.143Z,30.55
2023-03-12T13:19:13.721Z,30.35
2023-03-12T13:21:47.358Z,30.07
2023-03-12T13:24:33.302Z,30.23
2023-03-12T13:27:19.220Z,29.42
2023-03-12T13:29:46.493Z,30.05
2023-03-12T13:32:36.428Z,34.25
2023-03-12T13:35:18.499Z,32.28
2023-03-12T13:37:51.132Z,32.50
2023-03-12T13:40:30.157Z,27.27
2023-03-12T13:43:11.932Z,29.15
2023-03-12T13:45:47.898Z,27.85
2023-03-12T13:48:19.483Z,29.77
2023-03-12T13:50:59.331Z,27.27
2023-03-12T13:53:32.700Z,26.67
2023-03-12T13:56:14.098Z,32.55
2023-03-12T13:59:05.999Z,29.17
2023-03-12T14:01:41.485Z,28.52
2023-03-12T14:04:14.713Z,28.77
2023-03-12T14:07:02.557Z,27.85
2023-03-12T14:09:53.776Z,27.02
2023-03-12T14:12:26.771Z,26.10
2023-03-12T14:14:59.600Z,24.48
2023-03-12T14:17:33.007Z,23.08
2023-03-12T14:20:10.633Z,24.98
2023-03-12T14:22:39.689Z,23.67
2023-03-12T14:25:37.359Z,23.95
2023-03-12T14:28:11.707Z,24.20
2023-03-12T14:30:44.883Z,23.45
2023-03-12T14:33:14.650Z,22.88
2023-03-12T14:36:00.907Z,24.75
2023-03-12T14:38:46.231Z,24.58
2023-03-12T14:41:34.146Z,34.90
2023-03-12T14:44:07.360Z,37.60
2023-03-12T14:46:34.543Z,25.90
2023-03-12T14:49:01.605Z,24.35
2023-03-12T14:51:31.174Z,24.88
2023-03-12T14:54:02.705Z,25.42
2023-03-12T14:56:34.879Z,25.70
2023-03-12T14:59:26.587Z,24.83
2023-03-12T15:02:02.165Z,24.42
2023-03-12T15:04:30.755Z,27.60
2023-03-12T15:07:01.699Z,27.08
2023-03-12T15:09:31.410Z,26.55
2023-03-12T15:12:02.711Z,27.00
2023-03-12T15:14:35.147Z,26.65
2023-03-12T15:17:05.771Z,29.92
2023-03-12T15:19:42.185Z,28.77
2023-03-12T15:22:17.124Z,28.25
2023-03-12T15:24:44.581Z,27.13
2023-03-12T15:27:34.779Z,25.63
2023-03-12T15:30:02.479Z,25.75
2023-03-12T15:32:31.950Z,23.65
2023-03-12T15:34:59.837Z,25.45
2023-03-12T15:37:35.374Z,24.15
2023-03-12T15:40:23.745Z,23.95
2023-03-12T15:42:51.518Z,23.27
2023-03-12T15:45:39.223Z,24.00
2023-03-12T15:48:34.202Z,22.83
2023-03-12T15:51:01.453Z,21.83
2023-03-12T15:53:34.014Z,21.20
2023-03-12T15:56:21.646Z,20.23
2023-03-12T15:59:20.124Z,22.10
2023-03-12T16:01:49.578Z,20.20
2023-03-12T16:04:16.736Z,19.77
2023-03-12T16:06:47.136Z,20.65
2023-03-12T16:09:24.669Z,20.20
2023-03-12T16:11:53.720Z,21.10
2023-03-12T16:14:23.005Z,22.00
2023-03-12T16:16:51.379Z,23.27
2023-03-12T16:19:21.059Z,22.52
2023-03-12T16:21:48.739Z,24.52
2023-03-12T16:24:19.410Z,24.77
2023-03-12T16:26:58.761Z,23.98
2023-03-12T16:29:46.028Z,23.60
2023-03-12T16:32:16.321Z,23.65
2023-03-12T16:34:43.986Z,23.58
2023-03-12T16:37:12.328Z,23.73
2023-03-12T16:39:39.449Z,23.40
2023-03-12T16:42:14.365Z,24.15
2023-03-12T16:44:42.540Z,24.35
2023-03-12T16:47:13.694Z,23.90
2023-03-12T16:49:40.822Z,24.15
2023-03-12T16:52:21.970Z,24.40
2023-03-12T16:54:49.922Z,23.00
2023-03-12T16:57:32.720Z,24.40
2023-03-12T17:00:00.524Z,24.50
2023-03-12T17:02:29.888Z,23.55
2023-03-12T17:04:56.934Z,24.13
2023-03-12T17:07:23.910Z,23.80
2023-03-12T17:09:50.874Z,23.52
2023-03-12T17:12:32.876Z,24.65
2023-03-12T17:15:01.847Z,26.38
2023-03-12T17:17:28.900Z,24.80
2023-03-12T17:19:55.929Z,27.88
2023-03-12T17:22:22.894Z,25.85
2023-03-12T17:24:49.894Z,24.92
2023-03-12T17:27:16.909Z,23.50
2023-03-12T17:29:44.067Z,28.55
2023-03-12T17:32:11.242Z,28.80
2023-03-12T17:34:38.237Z,29.75
2023-03-12T17:37:05.178Z,29.50
2023-03-12T17:39:32.193Z,31.55
2023-03-12T17:41:59.156Z,29.52
2023-03-12T17:44:29.531Z,26.45
2023-03-12T17:46:59.715Z,24.70
2023-03-12T17:49:27.954Z,25.98
2023-03-12T17:51:55.274Z,25.83
2023-03-12T17:54:22.568Z,23.77
2023-03-12T17:56:49.659Z,22.77
2023-03-12T17:59:16.664Z,26.30
2023-03-12T18:01:43.648Z,25.05
2023-03-12T18:04:10.679Z,24.02
2023-03-12T18:06:37.599Z,23.38
2023-03-12T18:09:04.665Z,24.63
2023-03-12T18:11:31.635Z,23.65
2023-03-12T18:13:58.607Z,22.63
2023-03-12T18:16:25.698Z,26.55
2023-03-12T18:18:53.131Z,22.35
2023-03-12T18:21:20.295Z,21.52
2023-03-12T18:23:47.403Z,22.30
2023-03-12T18:26:14.518Z,22.80
2023-03-12T18:28:41.498Z,21.33
2023-03-12T18:31:08.962Z,21.60
2023-03-12T18:33:36.517Z,23.08
2023-03-12T18:36:04.345Z,20.92
2023-03-12T18:38:32.451Z,21.38
2023-03-12T18:41:10.813Z,22.73
2023-03-12T18:43:37.977Z,21.05
2023-03-12T18:46:05.593Z,20.15
2023-03-12T18:48:32.616Z,21.90
2023-03-12T18:50:59.513Z,23.75
2023-03-12T18:53:26.686Z,21.33
2023-03-12T18:55:55.408Z,21.27
2023-03-12T18:58:23.671Z,20.88
2023-03-12T19:00:58.527Z,20.65
2023-03-12T19:03:27.467Z,19.88
2023-03-12T19:06:05.919Z,20.58
2023-03-12T19:08:33.042Z,20.02
2023-03-12T19:11:00.592Z,20.05
2023-03-12T19:13:27.569Z,20.05
2023-03-12T19:15:59.703Z,19.88
2023-03-12T19:18:27.284Z,20.88
2023-03-12T19:20:54.557Z,20.23
2023-03-12T19:23:21.795Z,21.63
2023-03-12T19:25:48.864Z,20.27
2023-03-12T19:28:15.853Z,21.42
2023-03-12T19:30:42.821Z,19.73
2023-03-12T19:33:09.949Z,20.15
2023-03-12T19:35:41.029Z,20.27
2023-03-12T19:38:08.990Z,19.90
2023-03-12T19:40:36.193Z,20.63
2023-03-12T19:43:03.483Z,21.30
2023-03-12T19:45:30.597Z,20.10
2023-03-12T19:47:57.649Z,20.20
2023-03-12T19:50:24.685Z,20.67
2023-03-12T19:52:51.721Z,20.00
2023-03-12T19:55:18.695Z,20.77
2023-03-12T19:57:45.877Z,21.75
2023-03-12T20:00:13.179Z,20.73
2023-03-12T20:02:40.698Z,20.38
2023-03-12T20:05:08.977Z,20.50
2023-03-12T20:07:36.208Z,20.10
2023-03-12T20:10:03.637Z,19.85
2023-03-12T20:12:32.021Z,21.35
2023-03-12T20:14:59.013Z,20.85
2023-03-12T20:17:25.951Z,20.83
2023-03-12T20:19:53.232Z,20.27
2023-03-12T20:22:20.289Z,19.92
2023-03-12T20:24:47.233Z,19.80
2023-03-12T20:27:14.348Z,23.45
2023-03-12T20:29:43.525Z,22.05
2023-03-12T20:32:10.573Z,24.92
2023-03-12T20:34:37.750Z,21.40
2023-03-12T20:37:04.787Z,22.58
2023-03-12T20:39:31.760Z,25.85
2023-03-12T20:41:58.723Z,22.35
2023-03-12T20:44:25.742Z,21.77
2023-03-12T20:46:52.709Z,22.65
2023-03-12T20:49:19.698Z,22.30
2023-03-12T20:51:46.804Z,22.48
2023-03-12T20:54:13.777Z,22.63
2023-03-12T20:56:44.014Z,26.48
2023-03-12T20:59:12.576Z,23.80
2023-03-12T21:01:39.710Z,28.40
2023-03-12T21:04:06.755Z,23.38
2023-03-12T21:06:33.775Z,22.65
2023-03-12T21:09:00.816Z,21.52
2023-03-12T21:11:27.937Z,20.05
2023-03-12T21:13:55.120Z,22.45
2023-03-12T21:16:22.234Z,23.30
2023-03-12T21:18:49.280Z,19.80
2023-03-12T21:21:16.571Z,20.13
2023-03-12T21:23:43.628Z,21.38
2023-03-12T21:26:12.044Z,20.45
2023-03-12T21:28:39.033Z,23.60
2023-03-12T21:31:07.871Z,24.20
2023-03-12T21:33:35.192Z,21.42
2023-03-12T21:36:05.783Z,22.42
2023-03-12T21:38:34.448Z,22.17
2023-03-12T21:41:06.440Z,20.60
2023-03-12T21:43:33.446Z,20.88
2023-03-12T21:46:11.432Z,21.45
2023-03-12T21:48:39.428Z,21.58
2023-03-12T21:51:08.964Z,19.77
2023-03-12T21:53:36.794Z,22.95
2023-03-12T21:56:05.479Z,23.40
2023-03-12T21:58:33.595Z,20.70
2023-03-12T22:01:07.716Z,23.60
2023-03-12T22:03:35.261Z,24.15
2023-03-12T22:06:02.608Z,24.10
2023-03-12T22:08:29.660Z,21.92
2023-03-12T22:10:56.772Z,20.20
2023-03-12T22:13:23.937Z,20.80
2023-03-12T22:15:59.788Z,20.95
2023-03-12T22:18:27.830Z,23.25
2023-03-12T22:21:03.337Z,23.42
2023-03-12T22:23:31.038Z,20.80
2023-03-12T22:26:01.915Z,22.70
2023-03-12T22:28:29.158Z,21.88
2023-03-12T22:31:14.174Z,20.15
2023-03-12T22:33:42.412Z,21.83
2023-03-12T22:36:11.835Z,20.23
2023-03-12T22:38:39.947Z,25.27
2023-03-12T22:41:22.146Z,21.80
2023-03-12T22:43:50.587Z,21.50
2023-03-12T22:46:19.963Z,24.17
2023-03-12T22:48:48.907Z,20.05
2023-03-12T22:51:16.185Z,24.77
2023-03-12T22:53:43.259Z,24.92
2023-03-12T22:56:12.901Z,21.27
2023-03-12T22:58:40.324Z,21.95
2023-03-12T23:01:16.428Z,20.85
2023-03-12T23:03:44.747Z,20.42
2023-03-12T23:06:14.656Z,22.60
2023-03-12T23:08:41.770Z,22.90
2023-03-12T23:11:10.576Z,24.98
2023-03-12T23:13:40.457Z,20.67
2023-03-12T23:16:17.330Z,21.67
2023-03-12T23:18:44.871Z,21.20
2023-03-12T23:21:16.166Z,23.73
2023-03-12T23:23:44.258Z,27.10
2023-03-12T23:26:18.301Z,21.38
2023-03-12T23:31:16.115Z,22.05
2023-03-12T23:33:44.450Z,24.70
2023-03-12T23:36:17.713Z,25.58
2023-03-12T23:38:45.994Z,22.65
2023-03-12T23:41:19.537Z,26.85
2023-03-12T23:43:48.099Z,26.35
2023-03-12T23:46:19.345Z,24.88
2023-03-12T23:48:47.044Z,23.08
2023-03-12T23:51:24.483Z,24.67
2023-03-12T23:53:55.314Z,21.92
2023-03-12T23:56:24.411Z,25.80
2023-03-12T23:58:52.107Z,23.85
